Time;durP1;ratioP1;P1;durP2;ratioP2;P2;SDS_P1;SDS_P2;PMS_P1;PMS_P2;Temp;Humidity;BMP_temperature;BMP_pressure;BME280_temperature;BME280_humidity;BME280_pressure;Samples;Min_cycle;Max_cycle;Signal;HPM_P1;HPM_P2
2022/12/10 00:00:22;;;;;;;22.83;11.10;;;308.10;2304.00;;;;;;5007830;28;20053;-78
2022/12/10 00:02:48;;;;;;;21.63;10.80;;;308.10;2304.00;;;;;;5008521;28;20055;-78
2022/12/10 00:05:14;;;;;;;24.33;10.38;;;308.10;2304.00;;;;;;4999280;28;20121;-78
2022/12/10 00:07:39;;;;;;;20.60;9.88;;;332.80;2329.60;;;;;;5027289;28;20452;-78
2022/12/10 00:10:05;;;;;;;18.30;9.90;;;332.80;2329.60;;;;;;5005171;28;20029;-77
2022/12/10 00:12:31;;;;;;;26.20;12.02;;;332.80;2329.60;;;;;;5021562;28;20438;-78
2022/12/10 00:14:57;;;;;;;19.48;10.65;;;332.80;2329.60;;;;;;5007594;28;20065;-80
2022/12/10 00:17:23;;;;;;;17.48;9.35;;;332.80;2329.60;;;;;;5027207;28;20018;-78
2022/12/10 00:19:48;;;;;;;16.50;9.90;;;332.80;2329.60;;;;;;4998991;28;20034;-78
2022/12/10 00:22:14;;;;;;;29.52;10.23;;;332.80;2329.60;;;;;;5019867;28;20029;-78
2022/12/10 00:24:40;;;;;;;20.92;9.85;;;332.80;2329.60;;;;;;4998795;28;20042;-77
2022/12/10 00:27:06;;;;;;;18.10;9.15;;;332.80;2329.60;;;;;;5022276;28;20018;-77
2022/12/10 00:29:32;;;;;;;17.48;9.20;;;332.80;2329.60;;;;;;5010175;28;20120;-78
2022/12/10 00:31:58;;;;;;;18.80;9.63;;;332.80;2329.60;;;;;;5021296;28;20029;-78
2022/12/10 00:34:24;;;;;;;19.65;9.82;;;332.80;2329.60;;;;;;5004224;28;20036;-78
2022/12/10 00:36:49;;;;;;;23.75;9.80;;;308.10;2304.00;;;;;;5006866;28;20113;-78
2022/12/10 00:39:18;;;;;;;32.08;10.38;;;308.10;2304.00;;;;;;5001808;28;20057;-78
2022/12/10 00:41:44;;;;;;;23.10;10.57;;;308.10;2304.00;;;;;;5006596;28;20429;-78
2022/12/10 00:44:10;;;;;;;15.85;8.27;;;308.10;2304.00;;;;;;5004107;28;20022;-78
2022/12/10 00:46:35;;;;;;;17.65;9.77;;;308.10;2304.00;;;;;;5029225;28;20033;-78
2022/12/10 00:49:02;;;;;;;21.23;9.15;;;308.10;2304.00;;;;;;5000680;28;20038;-78
2022/12/10 00:51:28;;;;;;;23.35;9.55;;;308.10;2304.00;;;;;;5015913;28;20109;-77
2022/12/10 00:53:56;;;;;;;21.15;10.10;;;308.10;2304.00;;;;;;5009090;28;20045;-78
2022/12/10 00:56:26;;;;;;;22.42;10.60;;;308.00;2304.00;;;;;;5000791;28;20026;-78
2022/12/10 00:58:52;;;;;;;16.65;8.50;;;308.00;2304.00;;;;;;5026702;28;20060;-78
2022/12/10 01:01:44;;;;;;;17.25;9.00;;;308.00;2304.00;;;;;;5021641;28;20052;-77
2022/12/10 01:04:13;;;;;;;16.20;8.82;;;307.90;2304.00;;;;;;5006244;28;20501;-76
2022/12/10 01:06:53;;;;;;;19.08;10.38;;;307.90;2304.00;;;;;;5002917;28;20030;-77
2022/12/10 01:09:24;;;;;;;19.25;10.00;;;307.90;2304.00;;;;;;5006639;28;20033;-78
2022/12/10 01:11:51;;;;;;;15.55;8.98;;;307.90;2304.00;;;;;;5007975;28;20072;-78
2022/12/10 01:14:23;;;;;;;21.00;8.75;;;307.90;2304.00;;;;;;5027195;28;20029;-77
2022/12/10 01:16:52;;;;;;;22.13;10.13;;;307.90;2304.00;;;;;;5000086;28;20018;-77
2022/12/10 01:19:18;;;;;;;20.83;9.95;;;308.00;2304.00;;;;;;5017856;28;20030;-78
2022/12/10 01:21:44;;;;;;;21.90;9.07;;;308.00;2304.00;;;;;;5022942;28;20091;-77
2022/12/10 01:24:10;;;;;;;18.95;10.65;;;308.00;2304.00;;;;;;5005879;28;20383;-78
2022/12/10 01:26:36;;;;;;;22.27;10.18;;;308.00;2304.00;;;;;;4999797;28;20060;-80
2022/12/10 01:29:04;;;;;;;18.38;9.65;;;308.00;2304.00;;;;;;5023265;28;20065;-78
2022/12/10 01:31:35;;;;;;;17.83;9.18;;;308.00;2304.00;;;;;;5023553;28;20068;-78
2022/12/10 01:34:01;;;;;;;21.40;8.52;;;308.00;2304.00;;;;;;5027680;28;20523;-78
2022/12/10 01:36:37;;;;;;;19.50;8.93;;;308.00;2304.00;;;;;;5003494;28;20026;-79
2022/12/10 01:39:06;;;;;;;20.77;8.93;;;308.10;2304.00;;;;;;5003256;28;20025;-78
2022/12/10 01:41:41;;;;;;;14.25;8.43;;;308.10;2304.00;;;;;;5012076;28;20022;-78
2022/12/10 01:44:10;;;;;;;19.93;9.80;;;308.00;2304.00;;;;;;4997957;28;20025;-78
2022/12/10 01:46:40;;;;;;;21.58;9.18;;;308.00;2304.00;;;;;;5022107;28;20489;-78
2022/12/10 01:49:13;;;;;;;16.13;9.50;;;307.80;2304.00;;;;;;5027565;28;20044;-78
2022/12/10 01:51:41;;;;;;;15.55;8.55;;;308.00;2304.00;;;;;;4996927;28;20022;-77
2022/12/10 01:54:10;;;;;;;28.77;10.32;;;308.00;2304.00;;;;;;5005202;28;20052;-77
2022/12/10 01:56:40;;;;;;;15.73;8.82;;;308.00;2304.00;;;;;;5009551;28;20092;-78
2022/12/10 01:59:06;;;;;;;17.00;8.52;;;307.90;2304.00;;;;;;5002971;28;20100;-78
2022/12/10 02:01:52;;;;;;;17.33;8.20;;;308.00;2304.00;;;;;;5001515;28;20113;-78
2022/12/10 02:04:39;;;;;;;18.77;8.63;;;307.90;2304.00;;;;;;5005522;28;20076;-78
2022/12/10 02:07:43;;;;;;;19.58;7.72;;;307.90;2304.00;;;;;;5031436;28;20087;-78
2022/12/10 02:10:35;;;;;;;15.25;7.85;;;307.90;2304.00;;;;;;4936717;29;20035;-79
2022/12/10 02:13:13;;;;;;;19.35;8.23;;;307.90;2304.00;;;;;;4939287;29;20023;-78
2022/12/10 02:15:50;;;;;;;19.88;7.75;;;307.90;2304.00;;;;;;4932343;29;20488;-78
2022/12/10 02:18:33;;;;;;;18.15;8.73;;;307.90;2304.00;;;;;;4936006;29;20110;-79
2022/12/10 02:21:05;;;;;;;23.10;10.02;;;307.90;2304.00;;;;;;4932601;28;20023;-78
2022/12/10 02:23:36;;;;;;;16.75;9.07;;;308.00;2304.00;;;;;;4954504;29;20061;-78
2022/12/10 02:26:11;;;;;;;19.38;9.13;;;308.00;2304.00;;;;;;4932625;29;20019;-78
2022/12/10 02:28:45;;;;;;;20.50;8.65;;;308.00;2304.00;;;;;;4945782;29;20058;-77
2022/12/10 02:31:14;;;;;;;20.05;9.88;;;308.00;2304.00;;;;;;4949461;29;20039;-78
2022/12/10 02:33:48;;;;;;;15.00;7.93;;;308.00;2304.00;;;;;;4939030;29;20551;-78
2022/12/10 02:36:15;;;;;;;20.35;8.82;;;308.00;2304.00;;;;;;4935789;29;20032;-78
2022/12/10 02:38:43;;;;;;;18.45;8.85;;;308.00;2304.00;;;;;;4926820;29;20020;-78
2022/12/10 02:41:19;;;;;;;16.58;7.82;;;308.00;2304.00;;;;;;4992475;28;20029;-79
2022/12/10 02:43:51;;;;;;;18.40;8.45;;;308.00;2304.00;;;;;;5003519;28;20089;-79
2022/12/10 02:46:18;;;;;;;21.67;9.10;;;308.00;2304.00;;;;;;5024724;28;20072;-79
2022/12/10 02:48:46;;;;;;;27.60;8.77;;;308.00;2304.00;;;;;;5014438;28;20556;-79
2022/12/10 02:51:12;;;;;;;23.17;10.02;;;308.00;2304.00;;;;;;5023526;28;20041;-79
2022/12/10 02:53:45;;;;;;;18.95;8.45;;;308.00;2304.00;;;;;;5025450;28;20045;-81
2022/12/10 02:56:13;;;;;;;17.85;8.80;;;308.00;2304.00;;;;;;5023226;28;20049;-78
2022/12/10 02:58:39;;;;;;;21.20;9.13;;;308.00;2304.00;;;;;;5023949;28;20470;-78
2022/12/10 03:01:12;;;;;;;18.15;9.05;;;308.00;2304.00;;;;;;5027795;28;20026;-78
2022/12/10 03:03:48;;;;;;;16.15;9.13;;;308.00;2304.00;;;;;;5021428;28;20583;-78
2022/12/10 03:06:26;;;;;;;13.85;7.15;;;308.00;2304.00;;;;;;5029025;28;20535;-78
2022/12/10 03:09:03;;;;;;;12.50;7.53;;;308.00;2304.00;;;;;;5032824;28;20044;-78
2022/12/10 03:11:30;;;;;;;20.77;9.43;;;308.00;2304.00;;;;;;5013510;28;20025;-78
2022/12/10 03:14:12;;;;;;;18.20;8.43;;;308.10;2304.00;;;;;;5022212;28;20026;-78
2022/12/10 03:17:00;;;;;;;24.58;9.13;;;308.10;2304.00;;;;;;5019750;28;20053;-78
2022/12/10 03:19:36;;;;;;;22.58;9.80;;;308.00;2304.00;;;;;;4999520;28;20025;-79
2022/12/10 03:22:04;;;;;;;19.55;9.45;;;308.00;2304.00;;;;;;5024425;28;20025;-78
2022/12/10 03:24:32;;;;;;;21.67;8.82;;;308.00;2304.00;;;;;;5016486;28;20037;-78
2022/12/10 03:26:58;;;;;;;16.65;8.07;;;308.00;2304.00;;;;;;5013465;28;20079;-78
2022/12/10 03:29:38;;;;;;;14.77;8.35;;;308.00;2304.00;;;;;;5012798;28;20488;-79
2022/12/10 03:32:05;;;;;;;17.45;8.32;;;308.10;2304.00;;;;;;5022874;28;20018;-81
2022/12/10 03:34:31;;;;;;;19.90;8.32;;;308.10;2304.00;;;;;;5005190;28;20030;-78
2022/12/10 03:36:58;;;;;;;17.95;9.13;;;332.80;2329.60;;;;;;5024909;28;20025;-79
2022/12/10 03:39:25;;;;;;;20.63;8.10;;;332.90;2329.60;;;;;;5024891;28;20036;-79
2022/12/10 03:41:51;;;;;;;17.35;8.07;;;332.90;2329.60;;;;;;5011155;28;20041;-78
2022/12/10 03:44:31;;;;;;;21.17;9.38;;;332.80;2329.60;;;;;;5007488;28;20025;-77
2022/12/10 03:46:57;;;;;;;16.60;7.82;;;332.90;2329.60;;;;;;5002300;28;20541;-78
2022/12/10 03:49:23;;;;;;;14.90;8.32;;;332.90;2329.60;;;;;;5000906;28;20482;-78
2022/12/10 03:51:49;;;;;;;18.42;7.85;;;332.80;2329.60;;;;;;5021851;28;20017;-78
2022/12/10 03:54:14;;;;;;;23.60;8.32;;;332.80;2329.60;;;;;;5004213;28;20052;-78
2022/12/10 03:56:40;;;;;;;15.18;8.07;;;332.80;2329.60;;;;;;5007292;28;20402;-79
2022/12/10 03:59:06;;;;;;;16.20;7.63;;;332.80;2329.60;;;;;;4996097;28;20026;-79
2022/12/10 04:01:31;;;;;;;19.23;7.65;;;332.80;2329.60;;;;;;5006944;28;20037;-79
2022/12/10 04:03:57;;;;;;;18.40;8.00;;;332.80;2329.60;;;;;;5002040;28;20022;-79
2022/12/10 04:06:23;;;;;;;14.38;7.03;;;332.80;2329.60;;;;;;5010658;28;20072;-79
2022/12/10 04:08:48;;;;;;;15.70;7.13;;;332.80;2329.60;;;;;;5016450;28;20030;-79
2022/12/10 04:11:16;;;;;;;18.20;6.90;;;332.80;2329.60;;;;;;5019061;28;20038;-79
2022/12/10 04:16:27;;;;;;;15.90;7.05;;;308.10;2304.00;;;;;;5023596;28;20036;-77
2022/12/10 04:18:58;;;;;;;15.30;6.68;;;308.10;2304.00;;;;;;5020181;28;20029;-79
2022/12/10 04:26:56;;;;;;;13.88;7.25;;;308.10;2304.00;;;;;;5030039;28;20477;-79
2022/12/10 04:29:28;;;;;;;15.45;6.88;;;308.10;2304.00;;;;;;5002678;28;20052;-78
2022/12/10 04:31:54;;;;;;;15.45;7.38;;;308.10;2304.00;;;;;;5018366;28;20454;-78
2022/12/10 04:34:20;;;;;;;16.05;7.10;;;308.10;2304.00;;;;;;5021704;28;20030;-78
2022/12/10 04:36:46;;;;;;;14.23;7.20;;;308.10;2304.00;;;;;;5023264;28;20093;-78
2022/12/10 04:39:13;;;;;;;13.80;7.18;;;308.10;2304.00;;;;;;5025408;28;20124;-78
2022/12/10 04:41:40;;;;;;;22.40;7.78;;;308.10;2304.00;;;;;;5003771;28;20068;-79
2022/12/10 04:44:07;;;;;;;13.35;6.95;;;308.10;2304.00;;;;;;5018221;28;20087;-79
2022/12/10 04:46:32;;;;;;;17.27;6.15;;;308.10;2304.00;;;;;;5025585;28;20022;-79
2022/12/10 04:48:58;;;;;;;11.63;6.90;;;308.10;2304.00;;;;;;5023738;28;20042;-79
2022/12/10 04:51:24;;;;;;;14.43;6.18;;;308.10;2304.00;;;;;;5022335;28;20482;-80
2022/12/10 04:53:50;;;;;;;12.13;6.25;;;308.00;2304.00;;;;;;5020438;28;20049;-79
2022/12/10 04:56:15;;;;;;;21.55;7.10;;;308.00;2304.00;;;;;;4990032;28;20485;-78
2022/12/10 04:58:41;;;;;;;12.90;7.03;;;308.00;2304.00;;;;;;4989411;28;20101;-78
2022/12/10 05:01:09;;;;;;;13.48;6.97;;;308.00;2304.00;;;;;;4989844;28;20022;-78
2022/12/10 05:03:36;;;;;;;15.52;6.75;;;308.00;2304.00;;;;;;4981838;28;20048;-78
2022/12/10 05:06:07;;;;;;;21.25;6.40;;;308.00;2304.00;;;;;;4984183;28;20026;-79
2022/12/10 05:08:33;;;;;;;16.90;6.45;;;307.90;2304.00;;;;;;4989499;28;20034;-78
2022/12/10 05:11:04;;;;;;;14.93;6.68;;;307.90;2304.00;;;;;;4986508;28;20028;-78
2022/12/10 05:13:29;;;;;;;15.02;6.55;;;308.00;2304.00;;;;;;4985068;28;20031;-80
2022/12/10 05:15:56;;;;;;;18.65;6.32;;;307.90;2304.00;;;;;;4982844;28;20022;-78
2022/12/10 05:18:21;;;;;;;20.35;7.60;;;308.00;2304.00;;;;;;4987133;28;20499;-78
2022/12/10 05:20:47;;;;;;;14.20;6.07;;;307.90;2304.00;;;;;;4987089;28;20125;-79
2022/12/10 05:23:28;;;;;;;11.48;6.05;;;307.90;2304.00;;;;;;4982502;28;20069;-79
2022/12/10 05:26:09;;;;;;;11.68;5.80;;;308.00;2304.00;;;;;;4983560;28;20021;-78
2022/12/10 05:28:38;;;;;;;12.00;5.93;;;308.00;2304.00;;;;;;4983082;28;20041;-78
2022/12/10 05:31:04;;;;;;;12.52;5.32;;;308.10;2304.00;;;;;;4980589;28;20022;-78
2022/12/10 05:33:31;;;;;;;13.82;5.75;;;308.10;2304.00;;;;;;4980472;28;20474;-78
2022/12/10 05:35:59;;;;;;;29.63;7.18;;;308.10;2304.00;;;;;;4980438;28;20026;-78
2022/12/10 05:38:29;;;;;;;17.38;6.38;;;308.10;2304.00;;;;;;4985510;28;20026;-78
2022/12/10 05:40:55;;;;;;;15.30;6.50;;;308.10;2304.00;;;;;;4988044;28;20022;-78
2022/12/10 05:43:21;;;;;;;15.18;6.70;;;308.10;2304.00;;;;;;4994640;28;20493;-78
2022/12/10 05:45:47;;;;;;;15.27;5.63;;;308.10;2304.00;;;;;;4990037;28;20041;-78
2022/12/10 05:48:15;;;;;;;12.82;6.28;;;308.10;2304.00;;;;;;5004672;28;20113;-78
2022/12/10 05:50:41;;;;;;;19.13;5.78;;;308.10;2304.00;;;;;;4994613;28;20500;-78
2022/12/10 05:53:07;;;;;;;22.30;5.82;;;308.10;2304.00;;;;;;5001736;28;20061;-78
2022/12/10 05:55:33;;;;;;;16.50;6.85;;;308.10;2304.00;;;;;;4980050;28;20487;-78
2022/12/10 05:57:59;;;;;;;16.17;5.25;;;308.10;2304.00;;;;;;4980451;28;20026;-78
2022/12/10 06:00:27;;;;;;;14.00;6.22;;;308.10;2304.00;;;;;;4990935;28;20021;-78
2022/12/10 06:02:53;;;;;;;15.43;5.65;;;308.10;2304.00;;;;;;4986308;28;20053;-78
2022/12/10 06:05:19;;;;;;;14.15;6.68;;;308.10;2304.00;;;;;;4999998;28;20097;-78
2022/12/10 06:07:45;;;;;;;13.23;6.32;;;308.00;2304.00;;;;;;4980836;28;20042;-78
2022/12/10 06:10:11;;;;;;;21.60;8.35;;;307.90;2304.00;;;;;;4986191;28;20030;-78
2022/12/10 06:12:38;;;;;;;17.35;7.07;;;307.90;2304.00;;;;;;4988953;28;20027;-79
2022/12/10 06:15:05;;;;;;;14.77;6.15;;;307.90;2304.00;;;;;;4978315;28;20022;-79
2022/12/10 06:17:30;;;;;;;17.85;6.95;;;307.90;2304.00;;;;;;4987994;28;20497;-79
2022/12/10 06:19:57;;;;;;;16.83;7.22;;;307.90;2304.00;;;;;;4977652;28;20026;-79
2022/12/10 06:22:22;;;;;;;17.55;6.70;;;307.90;2304.00;;;;;;4985695;28;20242;-79
2022/12/10 06:24:48;;;;;;;19.52;7.88;;;307.90;2304.00;;;;;;5001976;28;20034;-79
2022/12/10 06:27:14;;;;;;;25.42;10.27;;;307.90;2304.00;;;;;;4982957;28;20169;-77
2022/12/10 06:29:40;;;;;;;27.33;11.02;;;307.80;2304.00;;;;;;5001243;28;20109;-78
2022/12/10 06:32:06;;;;;;;15.77;7.88;;;307.80;2304.00;;;;;;4997402;28;20026;-78
2022/12/10 06:34:32;;;;;;;26.23;7.68;;;307.80;2304.00;;;;;;4988634;28;20096;-78
2022/12/10 06:36:58;;;;;;;18.08;7.50;;;307.80;2304.00;;;;;;4986089;28;20470;-79
2022/12/10 06:39:23;;;;;;;18.20;7.00;;;307.80;2304.00;;;;;;4999044;28;20100;-76
2022/12/10 06:41:49;;;;;;;;;;;307.80;2304.00;;;;;;5006031;28;20080;-78
2022/12/10 06:44:15;;;;;;;22.58;8.07;;;307.80;2304.00;;;;;;4984178;28;19905;-77
2022/12/10 06:46:41;;;;;;;17.38;7.63;;;307.90;2304.00;;;;;;4985157;28;20026;-77
2022/12/10 06:49:07;;;;;;;16.63;6.72;;;307.90;2304.00;;;;;;4990678;28;20446;-77
2022/12/10 06:51:34;;;;;;;17.80;7.25;;;307.90;2304.00;;;;;;5007275;28;20019;-77
2022/12/10 06:54:00;;;;;;;17.50;7.45;;;308.00;2304.00;;;;;;4989161;28;20574;-77
2022/12/10 06:56:26;;;;;;;20.75;8.23;;;308.10;2304.00;;;;;;5005706;28;20040;-78
2022/12/10 06:58:52;;;;;;;17.52;7.10;;;308.10;2304.00;;;;;;4988325;28;20026;-77
2022/12/10 07:01:27;;;;;;;14.82;7.25;;;308.10;2304.00;;;;;;4992932;28;20018;-76
2022/12/10 07:03:55;;;;;;;15.32;7.60;;;308.10;2304.00;;;;;;4990027;28;20041;-79
2022/12/10 07:06:21;;;;;;;19.67;8.52;;;332.80;2329.60;;;;;;4994563;28;20446;-82
2022/12/10 07:08:47;;;;;;;26.58;8.80;;;332.90;2329.60;;;;;;4997663;28;20062;-79
2022/12/10 07:11:15;;;;;;;18.65;7.43;;;332.90;2329.60;;;;;;4992026;28;20041;-79
2022/12/10 07:13:41;;;;;;;20.10;7.90;;;332.90;2329.60;;;;;;4992496;28;20083;-79
2022/12/10 07:16:17;;;;;;;22.55;7.80;;;332.90;2329.60;;;;;;5005734;28;20026;-76
2022/12/10 07:18:43;;;;;;;13.98;6.38;;;332.90;2329.60;;;;;;4992042;28;20379;-77
2022/12/10 07:21:19;;;;;;;14.48;6.00;;;333.20;2329.60;;;;;;4990991;28;20046;-79
2022/12/10 07:23:45;;;;;;;13.50;6.60;;;332.90;2329.60;;;;;;4994428;28;20368;-78
2022/12/10 07:26:11;;;;;;;18.05;6.85;;;332.90;2329.60;;;;;;4994411;28;20026;-76
2022/12/10 07:28:37;;;;;;;24.20;7.50;;;332.90;2329.60;;;;;;4985658;28;20034;-77
2022/12/10 07:31:04;;;;;;;17.63;6.65;;;332.90;2329.60;;;;;;5003035;28;20030;-78
2022/12/10 07:33:30;;;;;;;18.90;7.60;;;332.90;2329.60;;;;;;4987925;28;20029;-79
2022/12/10 07:35:56;;;;;;;23.50;8.82;;;332.90;2329.60;;;;;;4982816;28;20375;-77
2022/12/10 07:38:23;;;;;;;19.60;8.85;;;333.00;2329.60;;;;;;4988364;28;20026;-77
2022/12/10 07:40:49;;;;;;;17.48;8.57;;;333.00;2329.60;;;;;;4994109;28;20026;-78
2022/12/10 07:43:15;;;;;;;25.58;10.85;;;333.00;2329.60;;;;;;4994050;28;20490;-76
2022/12/10 07:45:40;;;;;;;20.48;9.43;;;332.90;2329.60;;;;;;4992061;28;20033;-76
2022/12/10 07:48:06;;;;;;;36.55;15.95;;;333.00;2329.60;;;;;;5014478;28;20457;-77
2022/12/10 07:50:32;;;;;;;35.35;16.15;;;333.00;2329.60;;;;;;5014622;28;20036;-77
2022/12/10 07:52:57;;;;;;;67.00;35.85;;;333.10;2329.60;;;;;;4996877;28;20026;-76
2022/12/10 07:55:23;;;;;;;60.83;30.75;;;333.20;2329.60;;;;;;4978496;28;20146;-77
2022/12/10 07:57:49;;;;;;;62.47;36.22;;;333.20;2329.60;;;;;;4983385;28;20498;-78
2022/12/10 08:00:15;;;;;;;28.27;13.95;;;333.10;2329.60;;;;;;4995459;28;20057;-78
2022/12/10 08:02:40;;;;;;;26.67;12.65;;;333.10;2329.60;;;;;;4996032;28;20129;-77
2022/12/10 08:05:06;;;;;;;20.73;12.32;;;333.10;2329.60;;;;;;4996150;28;20128;-78
2022/12/10 08:07:33;;;;;;;24.88;11.60;;;333.10;2329.60;;;;;;4996572;28;20107;-78
2022/12/10 08:09:59;;;;;;;23.92;10.60;;;333.10;2099.20;;;;;;4997085;28;20045;-77
2022/12/10 08:12:24;;;;;;;21.42;9.70;;;333.10;2124.80;;;;;;4996497;28;20022;-79
2022/12/10 08:14:50;;;;;;;31.10;10.10;;;333.20;2329.60;;;;;;4996683;28;20410;-78
2022/12/10 08:17:16;;;;;;;22.77;12.82;;;333.20;2329.60;;;;;;5005880;28;20076;-78
2022/12/10 08:19:41;;;;;;;43.90;19.30;;;333.20;2329.60;;;;;;4993557;28;20041;-80
2022/12/10 08:22:07;;;;;;;49.83;22.23;;;333.20;2329.60;;;;;;4996676;28;20037;-78
2022/12/10 08:24:33;;;;;;;98.55;42.92;;;333.30;2329.60;;;;;;4996592;28;20025;-79
2022/12/10 08:26:59;;;;;;;65.95;36.72;;;333.20;2329.60;;;;;;4993449;28;20387;-79
2022/12/10 08:29:24;;;;;;;75.35;39.78;;;333.20;1971.20;;;;;;4994544;28;20066;-79
2022/12/10 08:31:50;;;;;;;65.63;36.20;;;333.20;2329.60;;;;;;5007222;28;20409;-79
2022/12/10 08:34:18;;;;;;;203.00;70.07;;;333.20;2329.60;;;;;;4983676;28;20406;-80
2022/12/10 08:36:44;;;;;;;58.42;30.15;;;333.30;2150.40;;;;;;4999816;28;20022;-78
2022/12/10 08:39:14;;;;;;;27.58;14.73;;;333.20;2329.60;;;;;;5005348;28;20108;-79
2022/12/10 08:41:41;;;;;;;18.08;10.23;;;333.20;2329.60;;;;;;4997064;28;20471;-82
2022/12/10 08:44:07;;;;;;;17.80;8.68;;;333.20;2329.60;;;;;;5012823;28;20082;-79
2022/12/10 08:46:33;;;;;;;15.70;8.00;;;333.20;2329.60;;;;;;5012366;28;20088;-81
2022/12/10 08:48:59;;;;;;;13.40;7.00;;;333.20;2329.60;;;;;;5011646;28;20049;-79
2022/12/10 08:51:25;;;;;;;24.65;7.75;;;333.20;2329.60;;;;;;4996654;28;20029;-81
2022/12/10 08:53:51;;;;;;;18.85;7.30;;;333.20;2329.60;;;;;;5019296;28;20057;-81
2022/12/10 08:56:17;;;;;;;19.20;8.88;;;333.20;2329.60;;;;;;5032903;28;20028;-77
2022/12/10 08:58:43;;;;;;;19.60;8.40;;;333.20;2329.60;;;;;;5031973;28;20120;-80
2022/12/10 09:01:14;;;;;;;21.95;8.43;;;333.20;2329.60;;;;;;5014941;28;20087;-77
2022/12/10 09:03:40;;;;;;;18.23;7.68;;;333.20;2022.40;;;;;;5032952;28;20035;-80
2022/12/10 09:06:09;;;;;;;52.10;18.30;;;333.40;2329.60;;;;;;5015073;28;20030;-77
2022/12/10 09:08:35;;;;;;;76.13;26.35;;;333.50;2329.60;;;;;;5015351;28;20067;-80
2022/12/10 09:11:07;;;;;;;60.53;19.70;;;333.60;2329.60;;;;;;5015980;28;20021;-80
2022/12/10 09:13:33;;;;;;;27.95;11.98;;;333.70;2329.60;;;;;;5001535;28;20021;-80
2022/12/10 09:15:59;;;;;;;25.23;13.10;;;358.40;2329.60;;;;;;5033063;28;20037;-79
2022/12/10 09:18:25;;;;;;;32.35;16.08;;;333.70;2329.60;;;;;;5015601;28;20374;-79
2022/12/10 09:20:51;;;;;;;36.38;20.10;;;358.50;2329.60;;;;;;5033121;28;20017;-79
2022/12/10 09:23:17;;;;;;;40.50;21.33;;;358.50;2329.60;;;;;;5015205;28;20053;-80
2022/12/10 09:25:42;;;;;;;53.38;25.92;;;358.50;2329.60;;;;;;5014785;28;20049;-79
2022/12/10 09:28:09;;;;;;;85.18;33.88;;;;;;;;;;5031043;28;20489;-81
2022/12/10 09:30:34;;;;;;;51.28;26.25;;;359.10;2329.60;;;;;;5027493;28;20017;-79
2022/12/10 09:33:00;;;;;;;26.88;14.23;;;;;;;;;;5012086;28;20398;-80
2022/12/10 09:35:27;;;;;;;33.50;11.68;;;384.00;2329.60;;;;;;5025781;28;20482;-79
2022/12/10 09:37:53;;;;;;;22.48;9.30;;;384.00;2329.60;;;;;;5003387;28;20041;-79
2022/12/10 09:40:20;;;;;;;18.15;8.65;;;;;;;;;;5014565;28;20444;-78
2022/12/10 09:42:52;;;;;;;18.63;8.35;;;384.10;2329.60;;;;;;5025244;28;20109;-79
2022/12/10 09:45:36;;;;;;;29.67;10.73;;;384.00;2329.60;;;;;;5014486;28;20042;-77
2022/12/10 09:48:11;;;;;;;22.55;9.90;;;384.10;2329.60;;;;;;5032012;28;20021;-82
2022/12/10 09:51:13;;;;;;;18.30;8.68;;;384.60;2329.60;;;;;;5018378;28;20088;-81
2022/12/10 09:53:40;;;;;;;23.55;10.20;;;384.70;2329.60;;;;;;5015957;28;20056;-78
2022/12/10 09:56:16;;;;;;;153.30;61.75;;;384.60;2329.60;;;;;;5012615;28;20020;-79
2022/12/10 09:58:41;;;;;;;18.80;9.20;;;384.50;2329.60;;;;;;5012054;28;20038;-77
2022/12/10 10:01:14;;;;;;;18.05;8.20;;;384.60;2329.60;;;;;;5019024;28;20382;-78
2022/12/10 10:03:41;;;;;;;18.73;9.00;;;384.90;2329.60;;;;;;5014413;28;20021;-78
2022/12/10 10:06:11;;;;;;;21.73;10.57;;;384.90;2329.60;;;;;;5001276;28;20045;-78
2022/12/10 10:08:50;;;;;;;22.15;9.23;;;384.70;2329.60;;;;;;5013850;28;20030;-81
2022/12/10 10:11:22;;;;;;;20.50;8.35;;;384.70;2329.60;;;;;;5014765;28;20120;-80
2022/12/10 10:14:15;;;;;;;17.73;5.45;;;384.60;2329.60;;;;;;5031316;28;20450;-80
2022/12/10 10:16:47;;;;;;;12.65;6.65;;;384.50;2329.60;;;;;;5015027;28;20029;-81
2022/12/10 10:19:17;;;;;;;11.70;4.82;;;384.70;2329.60;;;;;;5015015;28;20025;-80
2022/12/10 10:21:46;;;;;;;10.00;5.00;;;384.90;2329.60;;;;;;5014972;28;20549;-80
2022/12/10 10:24:17;;;;;;;8.88;4.80;;;384.80;2329.60;;;;;;5018720;28;20026;-81
2022/12/10 10:26:43;;;;;;;11.05;5.10;;;384.90;2329.60;;;;;;5008319;28;20116;-81
2022/12/10 10:29:12;;;;;;;10.88;3.88;;;409.60;2355.20;;;;;;5036172;28;20128;-80
2022/12/10 10:31:41;;;;;;;10.00;4.32;;;384.90;2329.60;;;;;;5034912;28;20026;-80
2022/12/10 10:34:16;;;;;;;12.60;4.60;;;384.80;2329.60;;;;;;5018367;28;20029;-81
2022/12/10 10:36:42;;;;;;;9.80;4.53;;;384.70;2329.60;;;;;;5036633;28;20065;-80
2022/12/10 10:39:20;;;;;;;17.05;4.97;;;384.70;2329.60;;;;;;5036075;28;20485;-80
2022/12/10 10:41:50;;;;;;;10.07;4.53;;;384.70;2329.60;;;;;;5029028;28;20092;-80
2022/12/10 10:44:20;;;;;;;11.00;4.38;;;384.70;2329.60;;;;;;5018938;28;20022;-81
2022/12/10 10:46:48;;;;;;;12.48;4.85;;;384.70;2329.60;;;;;;5014229;28;20029;-80
2022/12/10 10:49:32;;;;;;;14.80;4.85;;;384.70;2329.60;;;;;;5027167;28;20044;-79
2022/12/10 10:52:15;;;;;;;11.98;4.60;;;384.90;2329.60;;;;;;5032333;28;20030;-80
2022/12/10 10:54:43;;;;;;;11.18;4.80;;;409.60;2355.20;;;;;;5015359;28;20125;-80
2022/12/10 10:57:33;;;;;;;15.10;5.45;;;409.80;2355.20;;;;;;5018089;28;20033;-79
2022/12/10 11:00:22;;;;;;;16.85;7.47;;;409.80;2355.20;;;;;;5034042;28;20025;-79
2022/12/10 11:02:48;;;;;;;11.90;6.25;;;409.80;2355.20;;;;;;5022562;28;20025;-80
2022/12/10 11:05:25;;;;;;;11.88;6.85;;;;;;;;;;5018072;28;20103;-79
2022/12/10 11:08:18;;;;;;;17.38;7.18;;;410.30;2355.20;;;;;;5022857;28;20026;-77
2022/12/10 11:11:17;;;;;;;14.82;6.55;;;435.20;2355.20;;;;;;5004707;28;20393;-79
2022/12/10 11:13:43;;;;;;;14.13;7.47;;;435.30;2355.20;;;;;;5033609;28;20484;-80
2022/12/10 11:16:11;;;;;;;19.10;8.07;;;435.20;2355.20;;;;;;5034161;28;20025;-79
2022/12/10 11:18:41;;;;;;;20.52;9.35;;;435.20;2355.20;;;;;;5033599;28;20111;-80
2022/12/10 11:21:13;;;;;;;23.48;11.55;;;410.50;2355.20;;;;;;5017385;28;20398;-81
2022/12/10 11:23:46;;;;;;;20.40;8.98;;;435.40;2355.20;;;;;;5020513;28;20025;-81
2022/12/10 11:26:42;;;;;;;23.30;9.00;;;435.40;2355.20;;;;;;5025545;28;20549;-79
2022/12/10 11:29:29;;;;;;;24.38;9.52;;;435.50;2355.20;;;;;;5017789;28;20482;-80
2022/12/10 11:32:12;;;;;;;21.02;9.18;;;435.80;2355.20;;;;;;5020258;28;20061;-82
2022/12/10 11:34:56;;;;;;;19.50;9.30;;;435.80;2355.20;;;;;;5016688;28;20037;-80
2022/12/10 11:37:40;;;;;;;16.65;8.65;;;435.80;2355.20;;;;;;5030854;28;20083;-79
2022/12/10 11:40:28;;;;;;;18.80;9.70;;;435.90;2355.20;;;;;;5016745;28;20470;-80
2022/12/10 11:42:59;;;;;;;21.35;9.20;;;435.90;2355.20;;;;;;5017128;28;20030;-79
2022/12/10 11:46:07;;;;;;;22.17;10.32;;;435.90;2355.20;;;;;;5021187;28;20120;-79
2022/12/10 11:49:17;;;;;;;16.30;8.38;;;435.70;2355.20;;;;;;4976440;28;20129;-81
2022/12/10 11:52:02;;;;;;;16.90;9.45;;;435.50;2355.20;;;;;;4989607;28;20060;-80
2022/12/10 11:54:48;;;;;;;21.27;9.10;;;435.60;2355.20;;;;;;4993377;28;20085;-81
2022/12/10 11:57:37;;;;;;;;;;;435.70;2355.20;;;;;;4970308;28;20023;-82
2022/12/10 12:00:17;;;;;;;20.20;14.13;;;435.70;2355.20;;;;;;4973910;28;19961;-80
2022/12/10 12:03:21;;;;;;;26.13;9.15;;;435.60;2355.20;;;;;;4992248;28;20037;-77
2022/12/10 12:05:59;;;;;;;23.17;11.02;;;435.60;2355.20;;;;;;4985748;28;20038;-80
2022/12/10 12:08:24;;;;;;;19.88;7.65;;;435.60;2355.20;;;;;;4989425;28;20047;-77
2022/12/10 12:10:58;;;;;;;17.10;8.57;;;435.60;2355.20;;;;;;4982090;28;20406;-78
2022/12/10 12:13:54;;;;;;;19.33;7.05;;;435.50;2355.20;;;;;;4976204;28;20118;-78
2022/12/10 12:16:44;;;;;;;13.57;7.20;;;435.50;2355.20;;;;;;4992409;28;20101;-77
2022/12/10 12:19:14;;;;;;;16.52;8.75;;;435.50;2355.20;;;;;;4967898;28;20085;-77
2022/12/10 12:21:41;;;;;;;17.77;9.73;;;435.40;2355.20;;;;;;4986574;28;20031;-78
2022/12/10 12:24:19;;;;;;;18.75;8.45;;;435.40;2355.20;;;;;;4981167;28;20150;-78
2022/12/10 12:26:58;;;;;;;16.80;8.48;;;435.30;2355.20;;;;;;5015733;28;20037;-78
2022/12/10 12:29:34;;;;;;;12.98;7.00;;;435.30;2355.20;;;;;;5030137;28;20508;-78
2022/12/10 12:32:09;;;;;;;;;;;435.40;2355.20;;;;;;5004886;28;20022;-78